Aérodrome :
LOGIN :

S'inscrire | Disclaimer

   EN    FR    IT 

 










Légende :    VFR   VFR Marginal   IFR   IFR Intensif   IFR Très Intensif
Visi : 
Plafond : 
>= 8 km
>= 3000ft
5 à 8 km
1000 à 3000 ft
1500m à 5 km
500 à 1000 ft
800 à 1500m
200 à 500 ft
< 800m
< 200 ft
Symboles :   Orages  Brouillard  Fortes neiges  Fortes précipitations  Vent > 20 kt
SIGMETs :   Divers  Orages  Givrage  Turbulence  Onde Orograph.  Cendres Volcan.






- Altitude de l'aérodrome : 297 ft
- Code IATA : UIP


LFRQ - Quimper Pluguffan

DERNIER METAR :
  • 261730Z AUTO 26006KT 9999 FEW040/// BKN052/// OVC064/// ///TCU 08/03 Q1015 BECMG 4000 RADZ BKN006 OVC015

METARs EXPIRÉS :
  • 261700Z AUTO 27007KT 9999 FEW042/// SCT068/// BKN120/// ///TCU 08/03 Q1015 BECMG SCT030 SCT040
  • 261630Z AUTO 29010KT 260V320 9999 FEW031/// BKN045/// OVC056/// ///TCU 08/03 Q1015 BECMG SCT030 SCT040
  • 261600Z AUTO 29010KT 9999 BKN035 BKN056 OVC066 08/02 Q1015 NOSIG
  • 261530Z AUTO 29009KT 250V320 9999 SCT030 BKN039 BKN052 09/02 Q1015 NOSIG
  • 261500Z AUTO 29012KT 260V320 9999 SCT033 BKN041 BKN052 09/03 Q1015 NOSIG

TAF TAF LFRQ
Valide du 26 à 18h jusqu'au 27 à 18h UTC


261700Z 2618/2718 29009KT 9999 SCT030 BKN045
BECMG 2619/2622 4000 RADZ BKN006 OVC015
BECMG 2622/2701 22015G30KT
TEMPO 2622/2703 2000 +RA OVC003
BECMG 2703/2706 26021G40KT
BECMG 2706/2709 9999 NSW SCT020
BECMG 2715/2718 32007KT



MET'MAP, la Météo Aéronautique d'un coup d'oeil ! - Copyright ORBIFLY Décembre 2007 - Disclaimer

ORBIFLY MET'MAP TEAM :

Programmation & Développement : Alexandra Zaïnal
Sur une idée originale de : Baudouin d'Aumeries
Assistance à la programmation : Marc-Olivier Méhu
Soutien technique & logistique : Manuel Goepfert

Contact : metmap@orbifly.com




SOURCES & CREDITS :

   NOAA